Notice: iconv(): Detected an illegal character in input string in /home/meteolat/www/weather28/wsLangFunctions.php on line 115

Notice: iconv(): Detected an illegal character in input string in /home/meteolat/www/weather28/wsLangFunctions.php on line 115
Météorologique de l'aéroport - Météo La Turballe
Pas de vigilance météorologique particulière.    Il n'y a aucun avertissement

Visitez nos sites météorologiques autres:

Template documentation
and downloads

And another site



Rapports METAR proximité

   
EHVK - Volkel Rnlafb, Netherlands
Distance: SO 18 km
Mise à jour: 28-10-2021 10:55
Claires  
Claires  
   Vent: SSE 9.3 km/h
Vent: SSE 9.3 km/h
Température: 11°C
Point de rosée: 8°C
Humidité: 82%
Baromètre: 1017 hPa
Nuageux: Claires
visibilité: More than 10 km
Détails des nuages: Claires
EHVK 280855Z AUTO 15005KT 120V180 9999 NCD 11/08 Q1017 BLU NOSIG
EDLV - Niederrhein, Germany
Distance: SE 25 km
Mise à jour: 28-10-2021 10:50
Claires  
Claires  
   Vent: SSE 13 km/h
Vent: SSE 13 km/h
Température: 10°C
éolien: 8°C
Point de rosée: 9°C
Humidité: 94%
Baromètre: 1017 hPa
visibilité: More than 10 km
Détails des nuages: Claires
EDLV 280850Z 15007KT CAVOK 10/09 Q1017
EHDL - Deelen Rnlafb, Netherlands
Distance: N 35 km
Mise à jour: 28-10-2021 10:55
Claires  
Claires  
   Vent: SSE 11.1 km/h
Vent: SSE 11.1 km/h
Température: 11°C
Point de rosée: 9°C
Humidité: 88%
Baromètre: 1017 hPa
Nuageux: Claires
visibilité: More than 10 km
Détails des nuages: Claires
EHDL 280855Z AUTO 16006KT 050V210 9999 NCD 11/09 Q1017 BLU
EHEH - Eindhoven Rnlafb, Netherlands
Distance: SO 48 km
Mise à jour: 28-10-2021 10:55
Claires  
Claires  
   Vent: SSE 13 km/h
Vent: SSE 13 km/h
Température: 11°C
Point de rosée: 9°C
Humidité: 88%
Baromètre: 1017 hPa
Nuageux: Claires
visibilité: More than 10 km
Détails des nuages: Claires
EHEH 280855Z AUTO 15007KT 140V210 9999 NCD 11/09 Q1017 BLU NOSIG
EHGR - Gilze-Rijen Rnla, Netherlands
Distance: OSO 70 km
Mise à jour: 28-10-2021 10:55
Claires  
Claires  
   Vent: Sud 14.8 km/h
Vent: Sud 14.8 km/h
Température: 12°C
Point de rosée: 9°C
Humidité: 82%
Baromètre: 1016 hPa
Nuageux: Claires
visibilité: More than 10 km
Détails des nuages: Claires
EHGR 280855Z AUTO 17008KT 130V220 9999 NCD 12/09 Q1016 BLU NOSIG
EBBL - Kleine-Brogel(Ba, Belgium
Distance: SSO 71 km
Mise à jour: 28-10-2021 10:25
Peu de nuages  
Peu de nuages  
   Vent: SSE 5.6 km/h
Vent: SSE 5.6 km/h
Température: 11°C
Point de rosée: 9°C
Humidité: 88%
Baromètre: 1017 hPa
Nuageux: Peu de nuages
visibilité: More than 10 km
Détails des nuages: Peu de nuages 28000 ft
EBBL 280825Z 16003KT 9999 FEW280 11/09 Q1017 BLU BLU

Script développé par  Saratoga-weather.org Adapté pour le modèle par  Weerstation Leuven

Équipement que nous utilisons:

Station de Météo
Davis VUE

Davis VUE